sensor_id;sensor_type;location;lat;lon;timestamp;pressure;altitude;pressure_sealevel;temperature;humidity
64844;BME280;51310;52.198;5.422;2024-01-27T00:02:04;103239.53;;;2.42;100.00
64844;BME280;51310;52.198;5.422;2024-01-27T00:04:30;103243.00;;;2.35;100.00
64844;BME280;51310;52.198;5.422;2024-01-27T00:06:56;103238.66;;;2.40;100.00
64844;BME280;51310;52.198;5.422;2024-01-27T00:09:21;103248.22;;;2.28;100.00
64844;BME280;51310;52.198;5.422;2024-01-27T00:11:48;103247.31;;;2.26;100.00
64844;BME280;51310;52.198;5.422;2024-01-27T00:14:13;103258.75;;;2.27;100.00
64844;BME280;51310;52.198;5.422;2024-01-27T00:16:39;103258.75;;;2.27;100.00
64844;BME280;51310;52.198;5.422;2024-01-27T00:19:05;103256.88;;;2.18;100.00
64844;BME280;51310;52.198;5.422;2024-01-27T00:21:31;103248.97;;;2.18;100.00
64844;BME280;51310;52.198;5.422;2024-01-27T00:23:57;103248.84;;;2.06;100.00
64844;BME280;51310;52.198;5.422;2024-01-27T00:26:27;103255.75;;;1.92;100.00
64844;BME280;51310;52.198;5.422;2024-01-27T00:28:53;103262.69;;;1.86;100.00
64844;BME280;51310;52.198;5.422;2024-01-27T00:31:19;103229.09;;;1.70;100.00
64844;BME280;51310;52.198;5.422;2024-01-27T00:33:45;103239.66;;;1.70;100.00
64844;BME280;51310;52.198;5.422;2024-01-27T00:36:11;103252.81;;;1.67;100.00
64844;BME280;51310;52.198;5.422;2024-01-27T00:38:37;103253.72;;;1.69;100.00
64844;BME280;51310;52.198;5.422;2024-01-27T00:41:04;103252.03;;;1.77;100.00
64844;BME280;51310;52.198;5.422;2024-01-27T00:43:30;103249.31;;;1.70;100.00
64844;BME280;51310;52.198;5.422;2024-01-27T00:45:57;103223.75;;;1.62;100.00
64844;BME280;51310;52.198;5.422;2024-01-27T00:48:23;103252.03;;;1.77;100.00
64844;BME280;51310;52.198;5.422;2024-01-27T00:50:48;103259.91;;;1.74;100.00
64844;BME280;51310;52.198;5.422;2024-01-27T00:53:14;103242.28;;;1.70;100.00
64844;BME280;51310;52.198;5.422;2024-01-27T00:55:40;103248.59;;;1.84;100.00
64844;BME280;51310;52.198;5.422;2024-01-27T00:58:08;103245.94;;;1.81;100.00
64844;BME280;51310;52.198;5.422;2024-01-27T01:00:33;103244.22;;;1.86;100.00
64844;BME280;51310;52.198;5.422;2024-01-27T01:02:59;103252.13;;;1.86;100.00
64844;BME280;51310;52.198;5.422;2024-01-27T01:05:25;103237.00;;;1.70;100.00
64844;BME280;51310;52.198;5.422;2024-01-27T01:07:51;103246.66;;;1.71;100.00
64844;BME280;51310;52.198;5.422;2024-01-27T01:10:17;103254.56;;;1.68;100.00
64844;BME280;51310;52.198;5.422;2024-01-27T01:12:43;103257.16;;;1.65;100.00
64844;BME280;51310;52.198;5.422;2024-01-27T01:15:09;103263.25;;;1.61;100.00
64844;BME280;51310;52.198;5.422;2024-01-27T01:17:35;103250.69;;;1.41;100.00
64844;BME280;51310;52.198;5.422;2024-01-27T01:20:01;103262.16;;;1.45;100.00
64844;BME280;51310;52.198;5.422;2024-01-27T01:22:28;103272.69;;;1.42;100.00
64844;BME280;51310;52.198;5.422;2024-01-27T01:24:53;103265.59;;;1.39;100.00
64844;BME280;51310;52.198;5.422;2024-01-27T01:27:19;103262.19;;;1.47;100.00
64844;BME280;51310;52.198;5.422;2024-01-27T01:29:46;103258.81;;;1.57;100.00
64844;BME280;51310;52.198;5.422;2024-01-27T01:32:12;103253.72;;;1.69;100.00
64844;BME280;51310;52.198;5.422;2024-01-27T01:34:38;103250.16;;;1.69;100.00
64844;BME280;51310;52.198;5.422;2024-01-27T01:37:04;103228.81;;;1.49;100.00
64844;BME280;51310;52.198;5.422;2024-01-27T01:39:30;103259.69;;;1.57;100.00
64844;BME280;51310;52.198;5.422;2024-01-27T01:41:56;103246.56;;;1.62;100.00
64844;BME280;51310;52.198;5.422;2024-01-27T01:44:22;103235.91;;;1.53;100.00
64844;BME280;51310;52.198;5.422;2024-01-27T01:46:50;103250.09;;;1.64;100.00
64844;BME280;51310;52.198;5.422;2024-01-27T01:49:16;103255.47;;;1.70;100.00
64844;BME280;51310;52.198;5.422;2024-01-27T01:51:42;103261.59;;;1.67;100.00
64844;BME280;51310;52.198;5.422;2024-01-27T01:54:08;103259.78;;;1.63;100.00
64844;BME280;51310;52.198;5.422;2024-01-27T01:56:34;103270.28;;;1.62;100.00
64844;BME280;51310;52.198;5.422;2024-01-27T01:59:02;103272.09;;;1.66;100.00
64844;BME280;51310;52.198;5.422;2024-01-27T02:01:27;103273.88;;;1.67;100.00
64844;BME280;51310;52.198;5.422;2024-01-27T02:03:57;103272.97;;;1.65;100.00
64844;BME280;51310;52.198;5.422;2024-01-27T02:06:23;103267.75;;;1.71;100.00
64844;BME280;51310;52.198;5.422;2024-01-27T02:08:50;103264.19;;;1.66;100.00
64844;BME280;51310;52.198;5.422;2024-01-27T02:11:17;103246.47;;;1.54;100.00
64844;BME280;51310;52.198;5.422;2024-01-27T02:13:43;103260.69;;;1.65;100.00
64844;BME280;51310;52.198;5.422;2024-01-27T02:16:09;103247.41;;;1.58;100.00
64844;BME280;51310;52.198;5.422;2024-01-27T02:18:35;103243.00;;;1.57;100.00
64844;BME280;51310;52.198;5.422;2024-01-27T02:21:01;103267.63;;;1.59;100.00
64844;BME280;51310;52.198;5.422;2024-01-27T02:23:27;103246.41;;;1.50;100.00
64844;BME280;51310;52.198;5.422;2024-01-27T02:25:53;103253.66;;;1.64;100.00
64844;BME280;51310;52.198;5.422;2024-01-27T02:28:19;103263.22;;;1.58;100.00
64844;BME280;51310;52.198;5.422;2024-01-27T02:30:45;103257.91;;;1.55;100.00
64844;BME280;51310;52.198;5.422;2024-01-27T02:33:11;103260.72;;;1.67;100.00
64844;BME280;51310;52.198;5.422;2024-01-27T02:35:37;103262.56;;;1.74;100.00
64844;BME280;51310;52.198;5.422;2024-01-27T02:38:03;103266.13;;;1.79;100.00
64844;BME280;51310;52.198;5.422;2024-01-27T02:40:29;103255.47;;;1.70;100.00
64844;BME280;51310;52.198;5.422;2024-01-27T02:42:55;103264.25;;;1.69;100.00
64844;BME280;51310;52.198;5.422;2024-01-27T02:45:21;103271.38;;;1.76;100.00
64844;BME280;51310;52.198;5.422;2024-01-27T02:47:47;103249.25;;;1.65;100.00
64844;BME280;51310;52.198;5.422;2024-01-27T02:50:13;103261.63;;;1.69;100.00
64844;BME280;51310;52.198;5.422;2024-01-27T02:52:39;103267.81;;;1.74;100.00
64844;BME280;51310;52.198;5.422;2024-01-27T02:55:05;103269.59;;;1.74;100.00
64844;BME280;51310;52.198;5.422;2024-01-27T02:57:32;103272.91;;;1.60;100.00
64844;BME280;51310;52.198;5.422;2024-01-27T02:59:57;103271.91;;;1.52;100.00
64844;BME280;51310;52.198;5.422;2024-01-27T03:02:23;103279.72;;;1.44;100.00
64844;BME280;51310;52.198;5.422;2024-01-27T03:04:49;103258.38;;;1.24;100.00
64844;BME280;51310;52.198;5.422;2024-01-27T03:07:15;103280.38;;;1.30;100.00
64844;BME280;51310;52.198;5.422;2024-01-27T03:09:41;103282.94;;;1.25;100.00
64844;BME280;51310;52.198;5.422;2024-01-27T03:12:07;103289.06;;;1.22;100.00
64844;BME280;51310;52.198;5.422;2024-01-27T03:14:34;103265.28;;;1.18;100.00
64844;BME280;51310;52.198;5.422;2024-01-27T03:17:00;103280.34;;;1.27;100.00
64844;BME280;51310;52.198;5.422;2024-01-27T03:19:26;103268.28;;;1.44;100.00
64844;BME280;51310;52.198;5.422;2024-01-27T03:21:52;103270.16;;;1.53;100.00
64844;BME280;51310;52.198;5.422;2024-01-27T03:24:18;103279.59;;;1.35;100.00
64844;BME280;51310;52.198;5.422;2024-01-27T03:26:44;103276.06;;;1.33;100.00
64844;BME280;51310;52.198;5.422;2024-01-27T03:29:09;103259.28;;;1.28;100.00
64844;BME280;51310;52.198;5.422;2024-01-27T03:31:35;103274.25;;;1.29;100.00
64844;BME280;51310;52.198;5.422;2024-01-27T03:34:02;103265.47;;;1.29;100.00
64844;BME280;51310;52.198;5.422;2024-01-27T03:36:29;103260.13;;;1.24;100.00
64844;BME280;51310;52.198;5.422;2024-01-27T03:38:58;103275.22;;;1.37;100.00
64844;BME280;51310;52.198;5.422;2024-01-27T03:41:25;103275.22;;;1.36;100.00
64844;BME280;51310;52.198;5.422;2024-01-27T03:43:51;103281.44;;;1.41;100.00
64844;BME280;51310;52.198;5.422;2024-01-27T03:46:17;103276.91;;;1.32;100.00
64844;BME280;51310;52.198;5.422;2024-01-27T03:48:42;103276.13;;;1.39;100.00
64844;BME280;51310;52.198;5.422;2024-01-27T03:51:08;103284.91;;;1.38;100.00
64844;BME280;51310;52.198;5.422;2024-01-27T03:53:34;103278.81;;;1.44;100.00
64844;BME280;51310;52.198;5.422;2024-01-27T03:56:02;103280.41;;;1.33;100.00
64844;BME280;51310;52.198;5.422;2024-01-27T03:58:32;103267.25;;;1.31;100.00
64844;BME280;51310;52.198;5.422;2024-01-27T04:00:59;103264.44;;;1.20;100.00
64844;BME280;51310;52.198;5.422;2024-01-27T04:03:25;103290.09;;;1.32;100.00
64844;BME280;51310;52.198;5.422;2024-01-27T04:05:51;103278.56;;;1.25;100.00
64844;BME280;51310;52.198;5.422;2024-01-27T04:08:17;103274.03;;;1.17;100.00
64844;BME280;51310;52.198;5.422;2024-01-27T04:10:43;103291.88;;;1.33;100.00
64844;BME280;51310;52.198;5.422;2024-01-27T04:13:09;103290.97;;;1.31;100.00
64844;BME280;51310;52.198;5.422;2024-01-27T04:15:35;103275.94;;;1.24;100.00
64844;BME280;51310;52.198;5.422;2024-01-27T04:18:07;103271.47;;;1.21;100.00
64844;BME280;51310;52.198;5.422;2024-01-27T04:20:35;103284.81;;;1.32;100.00
64844;BME280;51310;52.198;5.422;2024-01-27T04:23:01;103284.75;;;1.28;100.00
64844;BME280;51310;52.198;5.422;2024-01-27T04:25:28;103294.19;;;1.15;100.00
64844;BME280;51310;52.198;5.422;2024-01-27T04:27:54;103292.38;;;1.09;100.00
64844;BME280;51310;52.198;5.422;2024-01-27T04:30:20;103305.34;;;0.98;100.00
64844;BME280;51310;52.198;5.422;2024-01-27T04:32:45;103291.41;;;1.06;100.00
64844;BME280;51310;52.198;5.422;2024-01-27T04:35:14;103302.09;;;1.13;100.00
64844;BME280;51310;52.198;5.422;2024-01-27T04:37:40;103301.31;;;1.20;100.00
64844;BME280;51310;52.198;5.422;2024-01-27T04:40:07;103299.75;;;1.32;100.00
64844;BME280;51310;52.198;5.422;2024-01-27T04:42:34;103303.94;;;1.19;100.00
64844;BME280;51310;52.198;5.422;2024-01-27T04:45:01;103306.63;;;1.22;100.00
64844;BME280;51310;52.198;5.422;2024-01-27T04:47:27;103298.59;;;1.13;100.00
64844;BME280;51310;52.198;5.422;2024-01-27T04:49:53;103303.09;;;1.21;100.00
64844;BME280;51310;52.198;5.422;2024-01-27T04:52:19;103295.25;;;1.26;100.00
64844;BME280;51310;52.198;5.422;2024-01-27T04:54:45;103295.16;;;1.18;100.00
64844;BME280;51310;52.198;5.422;2024-01-27T04:57:11;103300.34;;;1.14;100.00
64844;BME280;51310;52.198;5.422;2024-01-27T04:59:37;103300.16;;;1.03;100.00
64844;BME280;51310;52.198;5.422;2024-01-27T05:02:03;103282.56;;;1.00;100.00
64844;BME280;51310;52.198;5.422;2024-01-27T05:04:29;103295.03;;;1.11;100.00
64844;BME280;51310;52.198;5.422;2024-01-27T05:06:55;103295.19;;;1.20;100.00
64844;BME280;51310;52.198;5.422;2024-01-27T05:09:21;103298.63;;;1.16;100.00
64844;BME280;51310;52.198;5.422;2024-01-27T05:11:48;103280.16;;;1.14;100.00
64844;BME280;51310;52.198;5.422;2024-01-27T05:14:17;103285.81;;;1.40;100.00
64844;BME280;51310;52.198;5.422;2024-01-27T05:16:43;103285.06;;;1.51;100.00
64844;BME280;51310;52.198;5.422;2024-01-27T05:19:10;103281.53;;;1.49;100.00
64844;BME280;51310;52.198;5.422;2024-01-27T05:21:36;103268.22;;;1.39;100.00
64844;BME280;51310;52.198;5.422;2024-01-27T05:24:02;103284.16;;;1.47;100.00
64844;BME280;51310;52.198;5.422;2024-01-27T05:26:28;103272.66;;;1.40;100.00
64844;BME280;51310;52.198;5.422;2024-01-27T05:28:54;103278.88;;;1.49;100.00
64844;BME280;51310;52.198;5.422;2024-01-27T05:31:20;103276.19;;;1.42;100.00
64844;BME280;51310;52.198;5.422;2024-01-27T05:33:46;103267.41;;;1.43;100.00
64844;BME280;51310;52.198;5.422;2024-01-27T05:36:11;103282.34;;;1.43;100.00
64844;BME280;51310;52.198;5.422;2024-01-27T05:38:37;103256.78;;;1.36;100.00
64844;BME280;51310;52.198;5.422;2024-01-27T05:41:03;103273.50;;;1.39;100.00
64844;BME280;51310;52.198;5.422;2024-01-27T05:43:30;103256.78;;;1.37;100.00
64844;BME280;51310;52.198;5.422;2024-01-27T05:45:55;103259.47;;;1.40;100.00
64844;BME280;51310;52.198;5.422;2024-01-27T05:48:21;103267.44;;;1.45;100.00
64844;BME280;51310;52.198;5.422;2024-01-27T05:50:58;103271.75;;;1.40;100.00
64844;BME280;51310;52.198;5.422;2024-01-27T05:53:26;103276.19;;;1.44;100.00
64844;BME280;51310;52.198;5.422;2024-01-27T05:55:53;103266.47;;;1.38;100.00
64844;BME280;51310;52.198;5.422;2024-01-27T05:58:25;103274.38;;;1.38;100.00
64844;BME280;51310;52.198;5.422;2024-01-27T06:00:50;103259.44;;;1.39;100.00
64844;BME280;51310;52.198;5.422;2024-01-27T06:03:16;103275.31;;;1.43;100.00
64844;BME280;51310;52.198;5.422;2024-01-27T06:05:43;103260.28;;;1.36;100.00
64844;BME280;51310;52.198;5.422;2024-01-27T06:08:09;103266.63;;;1.51;100.00
64844;BME280;51310;52.198;5.422;2024-01-27T06:10:35;103282.44;;;1.49;100.00
64844;BME280;51310;52.198;5.422;2024-01-27T06:13:04;103285.97;;;1.51;100.00
64844;BME280;51310;52.198;5.422;2024-01-27T06:15:31;103279.00;;;1.56;100.00
64844;BME280;51310;52.198;5.422;2024-01-27T06:17:57;103282.44;;;1.51;100.00
64844;BME280;51310;52.198;5.422;2024-01-27T06:20:23;103268.19;;;1.36;100.00
64844;BME280;51310;52.198;5.422;2024-01-27T06:22:49;103286.72;;;1.42;100.00
64844;BME280;51310;52.198;5.422;2024-01-27T06:25:15;103292.84;;;1.40;100.00
64844;BME280;51310;52.198;5.422;2024-01-27T06:27:42;103263.72;;;1.31;100.00
64844;BME280;51310;52.198;5.422;2024-01-27T06:30:10;103268.91;;;1.26;100.00
64844;BME280;51310;52.198;5.422;2024-01-27T06:32:36;103270.69;;;1.27;100.00
64844;BME280;51310;52.198;5.422;2024-01-27T06:35:03;103277.84;;;1.37;100.00
64844;BME280;51310;52.198;5.422;2024-01-27T06:37:30;103290.31;;;1.48;100.00
64844;BME280;51310;52.198;5.422;2024-01-27T06:39:56;103292.06;;;1.47;100.00
64844;BME280;51310;52.198;5.422;2024-01-27T06:42:21;103285.78;;;1.39;100.00
64844;BME280;51310;52.198;5.422;2024-01-27T06:44:47;103286.63;;;1.36;100.00
64844;BME280;51310;52.198;5.422;2024-01-27T06:47:14;103284.00;;;1.36;100.00
64844;BME280;51310;52.198;5.422;2024-01-27T06:49:40;103270.59;;;1.21;100.00
64844;BME280;51310;52.198;5.422;2024-01-27T06:52:06;103286.53;;;1.30;100.00
64844;BME280;51310;52.198;5.422;2024-01-27T06:54:32;103272.28;;;1.16;100.00
64844;BME280;51310;52.198;5.422;2024-01-27T06:56:59;103287.19;;;1.14;100.00
64844;BME280;51310;52.198;5.422;2024-01-27T06:59:26;103292.47;;;1.17;100.00
64844;BME280;51310;52.198;5.422;2024-01-27T07:01:52;103293.31;;;1.13;100.00
64844;BME280;51310;52.198;5.422;2024-01-27T07:04:18;103288.09;;;1.16;100.00
64844;BME280;51310;52.198;5.422;2024-01-27T07:06:44;103293.16;;;1.03;100.00
64844;BME280;51310;52.198;5.422;2024-01-27T07:09:11;103277.34;;;1.03;100.00
64844;BME280;51310;52.198;5.422;2024-01-27T07:11:37;103286.38;;;1.18;100.00
64844;BME280;51310;52.198;5.422;2024-01-27T07:14:04;103311.00;;;1.20;100.00
64844;BME280;51310;52.198;5.422;2024-01-27T07:16:30;103302.88;;;1.08;100.00
64844;BME280;51310;52.198;5.422;2024-01-27T07:18:57;103320.41;;;1.06;100.00
64844;BME280;51310;52.198;5.422;2024-01-27T07:21:23;103309.91;;;1.07;100.00
64844;BME280;51310;52.198;5.422;2024-01-27T07:23:49;103295.94;;;1.14;100.00
64844;BME280;51310;52.198;5.422;2024-01-27T07:26:16;103329.38;;;1.18;100.00
64844;BME280;51310;52.198;5.422;2024-01-27T07:28:42;103309.75;;;0.98;100.00
64844;BME280;51310;52.198;5.422;2024-01-27T07:31:08;103322.25;;;1.11;100.00
64844;BME280;51310;52.198;5.422;2024-01-27T07:33:34;103318.75;;;1.12;100.00
64844;BME280;51310;52.198;5.422;2024-01-27T07:36:00;103312.63;;;1.15;100.00
64844;BME280;51310;52.198;5.422;2024-01-27T07:38:27;103310.00;;;1.13;100.00
64844;BME280;51310;52.198;5.422;2024-01-27T07:40:52;103312.75;;;1.21;100.00
64844;BME280;51310;52.198;5.422;2024-01-27T07:43:18;103330.47;;;1.31;100.00
64844;BME280;51310;52.198;5.422;2024-01-27T07:45:44;103319.13;;;1.37;100.00
64844;BME280;51310;52.198;5.422;2024-01-27T07:48:10;103310.31;;;1.35;100.00
64844;BME280;51310;52.198;5.422;2024-01-27T07:50:36;103330.66;;;1.43;100.00
64844;BME280;51310;52.198;5.422;2024-01-27T07:53:02;103337.66;;;1.41;100.00
64844;BME280;51310;52.198;5.422;2024-01-27T07:55:28;103330.72;;;1.47;100.00
64844;BME280;51310;52.198;5.422;2024-01-27T07:57:54;103336.97;;;1.53;100.00
64844;BME280;51310;52.198;5.422;2024-01-27T08:00:20;103341.44;;;1.59;100.00
64844;BME280;51310;52.198;5.422;2024-01-27T08:02:46;103313.22;;;1.52;100.00
64844;BME280;51310;52.198;5.422;2024-01-27T08:05:12;103343.38;;;1.72;100.00
64844;BME280;51310;52.198;5.422;2024-01-27T08:07:38;103341.59;;;1.70;100.00
64844;BME280;51310;52.198;5.422;2024-01-27T08:10:04;103327.53;;;1.69;100.00
64844;BME280;51310;52.198;5.422;2024-01-27T08:12:30;103339.03;;;1.77;100.00
64844;BME280;51310;52.198;5.422;2024-01-27T08:14:56;103322.38;;;1.78;100.00
64844;BME280;51310;52.198;5.422;2024-01-27T08:17:22;103337.50;;;1.92;100.00
64844;BME280;51310;52.198;5.422;2024-01-27T08:19:48;103335.72;;;1.92;100.00
64844;BME280;51310;52.198;5.422;2024-01-27T08:22:14;103349.81;;;1.93;100.00
64844;BME280;51310;52.198;5.422;2024-01-27T08:24:40;103359.63;;;2.03;100.00
64844;BME280;51310;52.198;5.422;2024-01-27T08:27:06;103351.72;;;2.03;100.00
64844;BME280;51310;52.198;5.422;2024-01-27T08:29:32;103345.56;;;2.07;100.00
64844;BME280;51310;52.198;5.422;2024-01-27T08:31:58;103352.72;;;2.14;100.00
64844;BME280;51310;52.198;5.422;2024-01-27T08:34:24;103343.91;;;2.12;100.00
64844;BME280;51310;52.198;5.422;2024-01-27T08:36:50;103350.16;;;2.19;100.00
64844;BME280;51310;52.198;5.422;2024-01-27T08:39:17;103329.00;;;2.14;100.00
64844;BME280;51310;52.198;5.422;2024-01-27T08:41:43;103338.75;;;2.21;100.00
64844;BME280;51310;52.198;5.422;2024-01-27T08:44:09;103352.88;;;2.29;100.00
64844;BME280;51310;52.198;5.422;2024-01-27T08:46:35;103357.38;;;2.35;100.00
64844;BME280;51310;52.198;5.422;2024-01-27T08:49:01;103352.97;;;2.36;100.00
64844;BME280;51310;52.198;5.422;2024-01-27T08:51:27;103361.09;;;2.53;100.00
64844;BME280;51310;52.198;5.422;2024-01-27T08:53:53;103339.06;;;2.52;100.00
64844;BME280;51310;52.198;5.422;2024-01-27T08:56:19;103340.91;;;2.59;100.00
64844;BME280;51310;52.198;5.422;2024-01-27T08:58:45;103363.97;;;2.76;100.00
64844;BME280;51310;52.198;5.422;2024-01-27T09:01:13;103371.06;;;2.80;100.00
64844;BME280;51310;52.198;5.422;2024-01-27T09:03:41;103348.00;;;2.65;100.00
64844;BME280;51310;52.198;5.422;2024-01-27T09:06:07;103365.72;;;2.75;100.00
64844;BME280;51310;52.198;5.422;2024-01-27T09:08:34;103363.06;;;2.74;100.00
64844;BME280;51310;52.198;5.422;2024-01-27T09:11:05;103359.50;;;2.68;100.00
64844;BME280;51310;52.198;5.422;2024-01-27T09:13:34;103362.16;;;2.71;100.00
64844;BME280;51310;52.198;5.422;2024-01-27T09:16:00;103377.19;;;2.79;100.00
64844;BME280;51310;52.198;5.422;2024-01-27T09:18:27;103345.28;;;2.59;100.00
64844;BME280;51310;52.198;5.422;2024-01-27T09:20:53;103362.91;;;2.58;100.00
64844;BME280;51310;52.198;5.422;2024-01-27T09:23:19;103363.00;;;2.66;100.00
64844;BME280;51310;52.198;5.422;2024-01-27T09:25:45;103369.06;;;2.59;100.00
64844;BME280;51310;52.198;5.422;2024-01-27T09:28:11;103351.44;;;2.56;100.00
64844;BME280;51310;52.198;5.422;2024-01-27T09:30:37;103367.25;;;2.53;100.00
64844;BME280;51310;52.198;5.422;2024-01-27T09:33:04;103372.59;;;2.59;100.00
64844;BME280;51310;52.198;5.422;2024-01-27T09:35:30;103377.03;;;2.62;100.00
64844;BME280;51310;52.198;5.422;2024-01-27T09:37:56;103383.28;;;2.71;100.00
64844;BME280;51310;52.198;5.422;2024-01-27T09:40:22;103372.66;;;2.64;100.00
64844;BME280;51310;52.198;5.422;2024-01-27T09:42:51;103387.84;;;2.86;100.00
64844;BME280;51310;52.198;5.422;2024-01-27T09:45:23;103391.31;;;2.82;100.00
64844;BME280;51310;52.198;5.422;2024-01-27T09:47:49;103408.22;;;3.01;100.00
64844;BME280;51310;52.198;5.422;2024-01-27T09:50:18;103400.34;;;3.06;100.00
64844;BME280;51310;52.198;5.422;2024-01-27T09:52:44;103412.00;;;3.25;100.00
64844;BME280;51310;52.198;5.422;2024-01-27T09:55:10;103418.19;;;3.30;100.00
64844;BME280;51310;52.198;5.422;2024-01-27T09:57:38;103425.38;;;3.46;100.00
64844;BME280;51310;52.198;5.422;2024-01-27T10:00:11;103422.00;;;3.63;100.00
64844;BME280;51310;52.198;5.422;2024-01-27T10:02:39;103429.13;;;3.74;100.00
64844;BME280;51310;52.198;5.422;2024-01-27T10:05:09;103421.22;;;3.79;100.00
64844;BME280;51310;52.198;5.422;2024-01-27T10:07:36;103441.53;;;3.83;100.00
64844;BME280;51310;52.198;5.422;2024-01-27T10:10:01;103438.91;;;3.86;100.00
64844;BME280;51310;52.198;5.422;2024-01-27T10:12:29;103442.41;;;3.87;100.00
64844;BME280;51310;52.198;5.422;2024-01-27T10:14:57;103414.22;;;3.90;100.00
64844;BME280;51310;52.198;5.422;2024-01-27T10:17:24;103430.09;;;3.90;100.00
64844;BME280;51310;52.198;5.422;2024-01-27T10:20:05;103426.66;;;4.07;100.00
64844;BME280;51310;52.198;5.422;2024-01-27T10:22:43;103437.25;;;4.04;100.00
64844;BME280;51310;52.198;5.422;2024-01-27T10:25:11;103430.25;;;4.15;100.00
64844;BME280;51310;52.198;5.422;2024-01-27T10:27:38;103427.66;;;4.21;100.00
64844;BME280;51310;52.198;5.422;2024-01-27T10:30:05;103427.63;;;4.20;100.00
64844;BME280;51310;52.198;5.422;2024-01-27T10:32:33;103434.72;;;4.27;100.00
64844;BME280;51310;52.198;5.422;2024-01-27T10:35:07;103439.13;;;4.29;100.00
64844;BME280;51310;52.198;5.422;2024-01-27T10:37:37;103443.63;;;4.46;100.00
64844;BME280;51310;52.198;5.422;2024-01-27T10:40:04;103449.81;;;4.48;100.00
64844;BME280;51310;52.198;5.422;2024-01-27T10:42:36;103423.31;;;4.48;100.00
64844;BME280;51310;52.198;5.422;2024-01-27T10:45:04;103446.38;;;4.64;100.00
64844;BME280;51310;52.198;5.422;2024-01-27T10:47:32;103434.84;;;4.61;100.00
64844;BME280;51310;52.198;5.422;2024-01-27T10:50:00;103441.09;;;4.79;100.00
64844;BME280;51310;52.198;5.422;2024-01-27T10:52:32;103418.13;;;4.75;100.00
64844;BME280;51310;52.198;5.422;2024-01-27T10:55:04;103427.88;;;4.89;100.00
64844;BME280;51310;52.198;5.422;2024-01-27T10:57:37;103424.34;;;4.99;100.00
64844;BME280;51310;52.198;5.422;2024-01-27T11:00:04;103396.09;;;4.98;100.00
64844;BME280;51310;52.198;5.422;2024-01-27T11:02:36;103412.00;;;5.09;100.00
64844;BME280;51310;52.198;5.422;2024-01-27T11:05:05;103410.22;;;5.11;100.00
64844;BME280;51310;52.198;5.422;2024-01-27T11:07:34;103419.09;;;5.14;100.00
64844;BME280;51310;52.198;5.422;2024-01-27T11:10:01;103419.09;;;5.28;100.00
64844;BME280;51310;52.198;5.422;2024-01-27T11:12:27;103412.03;;;5.36;100.00
64844;BME280;51310;52.198;5.422;2024-01-27T11:14:53;103409.38;;;5.41;100.00
64844;BME280;51310;52.198;5.422;2024-01-27T11:17:24;103416.44;;;5.45;100.00
64844;BME280;51310;52.198;5.422;2024-01-27T11:19:50;103413.78;;;5.47;100.00
64844;BME280;51310;52.198;5.422;2024-01-27T11:22:28;103413.78;;;5.43;100.00
64844;BME280;51310;52.198;5.422;2024-01-27T11:25:14;103419.09;;;5.50;100.00
64844;BME280;51310;52.198;5.422;2024-01-27T11:27:45;103413.78;;;5.57;100.00
64844;BME280;51310;52.198;5.422;2024-01-27T11:30:27;103419.94;;;5.72;100.00
64844;BME280;51310;52.198;5.422;2024-01-27T11:32:57;103396.94;;;5.74;100.00
64844;BME280;51310;52.198;5.422;2024-01-27T11:35:26;103419.06;;;5.82;100.00
64844;BME280;51310;52.198;5.422;2024-01-27T11:37:54;103404.03;;;5.86;100.00
64844;BME280;51310;52.198;5.422;2024-01-27T11:40:20;103391.66;;;5.77;100.00
64844;BME280;51310;52.198;5.422;2024-01-27T11:43:01;103403.09;;;6.00;100.00
64844;BME280;51310;52.198;5.422;2024-01-27T11:45:28;103396.91;;;5.98;100.00
64844;BME280;51310;52.198;5.422;2024-01-27T11:47:56;103395.13;;;6.07;100.00
64844;BME280;51310;52.198;5.422;2024-01-27T11:50:22;103403.97;;;6.09;100.00
64844;BME280;51310;52.198;5.422;2024-01-27T11:52:49;103388.06;;;6.09;100.00
64844;BME280;51310;52.198;5.422;2024-01-27T11:55:15;103384.50;;;6.13;100.00
64844;BME280;51310;52.198;5.422;2024-01-27T11:57:42;103374.75;;;6.15;100.00
64844;BME280;51310;52.198;5.422;2024-01-27T12:00:08;103381.81;;;6.19;100.00
64844;BME280;51310;52.198;5.422;2024-01-27T12:02:38;103381.81;;;6.20;100.00
64844;BME280;51310;52.198;5.422;2024-01-27T12:05:08;103377.34;;;6.27;100.00
64844;BME280;51310;52.198;5.422;2024-01-27T12:07:35;103374.66;;;6.35;100.00
64844;BME280;51310;52.198;5.422;2024-01-27T12:10:01;103378.25;;;6.26;100.00
64844;BME280;51310;52.198;5.422;2024-01-27T12:12:27;103382.66;;;6.33;100.00
64844;BME280;51310;52.198;5.422;2024-01-27T12:14:53;103366.69;;;6.38;100.00
64844;BME280;51310;52.198;5.422;2024-01-27T12:17:20;103377.25;;;6.45;100.00
64844;BME280;51310;52.198;5.422;2024-01-27T12:19:51;103373.69;;;6.50;100.00
64844;BME280;51310;52.198;5.422;2024-01-27T12:22:26;103370.09;;;6.57;100.00
64844;BME280;51310;52.198;5.422;2024-01-27T12:25:10;103376.31;;;6.57;100.00
64844;BME280;51310;52.198;5.422;2024-01-27T12:27:40;103345.31;;;6.55;100.00
64844;BME280;51310;52.198;5.422;2024-01-27T12:30:06;103365.66;;;6.62;100.00
64844;BME280;51310;52.198;5.422;2024-01-27T12:32:33;103363.81;;;6.73;100.00
64844;BME280;51310;52.198;5.422;2024-01-27T12:35:06;103359.38;;;6.75;100.00
64844;BME280;51310;52.198;5.422;2024-01-27T12:37:34;103361.13;;;6.79;100.00
64844;BME280;51310;52.198;5.422;2024-01-27T12:40:01;103355.91;;;6.61;100.00
64844;BME280;51310;52.198;5.422;2024-01-27T12:42:27;103371.81;;;6.70;100.00
64844;BME280;51310;52.198;5.422;2024-01-27T12:44:53;103375.31;;;6.78;100.00
64844;BME280;51310;52.198;5.422;2024-01-27T12:47:18;103377.06;;;6.79;100.00
64844;BME280;51310;52.198;5.422;2024-01-27T12:49:45;103377.00;;;6.92;100.00